Time;durP1;ratioP1;P1;durP2;ratioP2;P2;SDS_P1;SDS_P2;PMS_P1;PMS_P2;Temp;Humidity;BMP_temperature;BMP_pressure;BME280_temperature;BME280_humidity;BME280_pressure;Samples;Min_cycle;Max_cycle;Signal;HPM_P1;HPM_P2
2022/05/06 00:01:32;;;;;;;183.88;22.58;;;4.70;99.90;;;;;;5015256;28;20120;-25
2022/05/06 00:03:58;;;;;;;321.63;28.73;;;4.70;99.90;;;;;;5016083;28;20056;-25
2022/05/06 00:06:24;;;;;;;193.98;15.77;;;4.90;99.90;;;;;;5015617;28;20056;-25
2022/05/06 00:08:49;;;;;;;142.65;13.63;;;4.60;99.90;;;;;;5010512;28;20038;-25
2022/05/06 00:11:15;;;;;;;192.52;17.75;;;4.70;99.90;;;;;;5017193;28;20079;-26
2022/05/06 00:13:41;;;;;;;210.37;23.70;;;4.50;99.90;;;;;;5016508;28;20058;-25
2022/05/06 00:16:07;;;;;;;221.00;23.20;;;4.50;99.90;;;;;;5015316;28;20116;-25
2022/05/06 00:18:33;;;;;;;443.70;46.53;;;4.40;99.90;;;;;;5014773;28;20037;-25
2022/05/06 00:20:59;;;;;;;262.40;29.50;;;4.50;99.90;;;;;;5015489;28;20057;-25
2022/05/06 00:23:24;;;;;;;409.47;37.30;;;4.50;1.00;;;;;;5015711;28;20046;-26
2022/05/06 00:25:50;;;;;;;631.72;76.13;;;4.60;1.00;;;;;;5015455;28;20501;-26
2022/05/06 00:28:16;;;;;;;637.78;72.20;;;4.70;1.00;;;;;;5014766;28;20042;-25
2022/05/06 00:30:42;;;;;;;553.03;81.97;;;4.70;1.00;;;;;;5014519;28;20041;-26
2022/05/06 00:33:09;;;;;;;690.30;81.70;;;4.80;1.00;;;;;;5018590;28;20377;-25
2022/05/06 00:35:38;;;;;;;839.97;77.97;;;5.40;1.00;;;;;;5032499;28;20175;-25
2022/05/06 00:38:04;;;;;;;642.95;78.25;;;5.10;1.00;;;;;;5015445;28;20048;-25
2022/05/06 00:40:30;;;;;;;666.88;66.35;;;4.70;1.00;;;;;;5014513;28;20129;-27
2022/05/06 00:42:56;;;;;;;445.20;49.13;;;4.50;1.00;;;;;;5016741;28;20050;-25
2022/05/06 00:45:23;;;;;;;574.10;61.03;;;4.60;1.00;;;;;;5014790;28;20359;-25
2022/05/06 00:47:49;;;;;;;463.35;48.72;;;4.70;1.00;;;;;;5014838;28;20034;-25
2022/05/06 00:50:16;;;;;;;455.80;44.33;;;4.60;1.00;;;;;;5015363;28;20049;-25
2022/05/06 00:52:42;;;;;;;737.07;76.33;;;4.70;1.00;;;;;;4998752;28;20053;-25
2022/05/06 00:55:08;;;;;;;567.42;76.72;;;4.70;1.00;;;;;;5014950;28;20471;-25
2022/05/06 00:57:36;;;;;;;364.37;53.60;;;5.40;1.00;;;;;;5002547;28;20041;-25
2022/05/06 01:00:19;;;;;;;257.70;42.55;;;4.90;1.00;;;;;;5012656;28;20492;-25
2022/05/06 01:02:48;;;;;;;198.05;57.28;;;5.00;1.00;;;;;;5018265;28;20041;-26
2022/05/06 01:05:14;;;;;;;162.27;56.08;;;5.00;1.00;;;;;;5014024;28;20099;-27
2022/05/06 01:07:41;;;;;;;102.15;46.65;;;5.20;1.00;;;;;;5027590;28;20049;-26
2022/05/06 01:10:07;;;;;;;96.75;50.38;;;5.30;1.00;;;;;;5023843;28;20057;-26
2022/05/06 01:12:33;;;;;;;105.60;53.05;;;5.30;1.00;;;;;;5020944;28;20076;-26
2022/05/06 01:14:59;;;;;;;96.25;50.75;;;5.30;1.00;;;;;;5014343;28;20053;-26
2022/05/06 01:17:25;;;;;;;127.80;53.60;;;5.30;1.00;;;;;;5013723;28;20057;-27
2022/05/06 01:19:51;;;;;;;364.17;80.40;;;5.30;1.00;;;;;;5017540;28;20068;-26
2022/05/06 01:22:17;;;;;;;696.10;90.15;;;5.30;1.00;;;;;;5014596;28;20049;-26
2022/05/06 01:24:44;;;;;;;251.43;43.15;;;5.40;51.20;;;;;;5014466;28;20042;-26
2022/05/06 01:27:20;;;;;;;143.07;36.28;;;5.20;30.50;;;;;;5014123;28;20048;-26
2022/05/06 01:29:47;;;;;;;44.45;27.20;;;5.50;1.00;;;;;;5015248;28;20112;-26
2022/05/06 01:32:15;;;;;;;165.18;40.80;;;5.10;1.00;;;;;;5012576;28;20058;-26
2022/05/06 01:34:42;;;;;;;149.05;32.08;;;5.00;1.00;;;;;;4997252;28;20052;-26
2022/05/06 01:37:11;;;;;;;257.88;46.78;;;4.80;1.00;;;;;;5014165;28;20425;-26
2022/05/06 01:39:39;;;;;;;221.05;39.10;;;4.90;1.00;;;;;;5016605;28;20061;-26
2022/05/06 01:42:12;;;;;;;264.58;45.65;;;4.90;1.00;;;;;;5033027;28;20592;-25
2022/05/06 01:44:41;;;;;;;108.38;33.72;;;4.90;1.00;;;;;;5018781;28;20405;-26
2022/05/06 01:47:21;;;;;;;283.33;47.20;;;5.00;1.00;;;;;;5030009;28;20115;-25
2022/05/06 01:49:49;;;;;;;228.63;44.72;;;4.90;1.00;;;;;;5030132;28;20069;-26
2022/05/06 01:52:17;;;;;;;63.30;29.90;;;4.70;14.20;;;;;;5013863;28;20053;-26
2022/05/06 01:54:43;;;;;;;95.25;41.45;;;5.00;14.80;;;;;;5011994;28;20050;-26
2022/05/06 01:57:09;;;;;;;44.80;28.25;;;4.80;12.20;;;;;;5016139;28;20046;-26
2022/05/06 01:59:34;;;;;;;44.30;30.63;;;5.30;25.70;;;;;;5014499;28;20096;-26
2022/05/06 02:02:00;;;;;;;82.03;40.23;;;4.70;29.30;;;;;;5014105;28;20489;-26
2022/05/06 02:07:10;;;;;;;85.47;34.65;;;4.80;1.00;;;;;;5033425;28;20049;-25
2022/05/06 02:09:36;;;;;;;79.00;35.80;;;5.00;1.00;;;;;;5027324;28;20052;-26
2022/05/06 02:12:02;;;;;;;64.38;30.88;;;4.70;1.00;;;;;;5014507;28;20060;-26
2022/05/06 02:14:28;;;;;;;306.88;51.72;;;4.70;17.30;;;;;;4997775;28;20042;-25
2022/05/06 02:16:54;;;;;;;328.75;51.67;;;4.80;50.10;;;;;;5013696;28;20061;-26
2022/05/06 02:19:19;;;;;;;482.65;76.57;;;4.80;66.20;;;;;;5014067;28;20103;-26
2022/05/06 02:21:45;;;;;;;53.97;31.27;;;4.80;99.90;;;;;;5019668;28;20053;-26
2022/05/06 02:24:12;;;;;;;84.07;41.28;;;5.00;99.90;;;;;;5033621;28;20133;-26
2022/05/06 02:26:38;;;;;;;140.40;38.47;;;5.10;99.90;;;;;;5034084;28;20041;-26
2022/05/06 02:29:04;;;;;;;201.88;49.55;;;5.20;99.90;;;;;;5032344;28;20048;-26
2022/05/06 02:34:18;;;;;;;290.52;56.63;;;5.40;99.90;;;;;;5021392;28;20412;-26
2022/05/06 02:36:47;;;;;;;405.05;81.78;;;5.50;99.90;;;;;;5003227;28;20042;-26
2022/05/06 02:39:13;;;;;;;66.10;33.60;;;5.50;99.90;;;;;;5014451;28;20038;-26
2022/05/06 02:41:39;;;;;;;112.05;45.72;;;5.40;99.90;;;;;;5013704;28;20393;-26
2022/05/06 02:44:05;;;;;;;81.25;36.42;;;5.80;99.90;;;;;;5014047;28;20475;-26
2022/05/06 02:46:33;;;;;;;137.65;47.25;;;5.80;99.90;;;;;;5013195;28;20134;-26
2022/05/06 02:49:00;;;;;;;169.73;53.78;;;5.80;99.90;;;;;;5013120;28;20100;-26
2022/05/06 02:51:28;;;;;;;330.05;65.35;;;6.00;99.90;;;;;;5013294;28;20498;-26
2022/05/06 02:53:57;;;;;;;308.58;55.50;;;6.00;99.90;;;;;;5013797;28;20053;-26
2022/05/06 02:56:24;;;;;;;836.28;100.63;;;6.20;99.90;;;;;;5013082;28;20050;-26
2022/05/06 02:58:50;;;;;;;849.08;102.95;;;6.40;99.90;;;;;;5011401;28;20752;-26
2022/05/06 03:01:16;;;;;;;1455.93;163.20;;;6.50;99.90;;;;;;5012405;28;20042;-26
2022/05/06 03:03:42;;;;;;;1477.13;164.15;;;6.60;99.90;;;;;;5013321;28;20051;-26
2022/05/06 03:06:08;;;;;;;1209.97;142.07;;;6.80;99.90;;;;;;5016169;28;20065;-26
2022/05/06 03:08:34;;;;;;;883.08;106.97;;;6.80;99.90;;;;;;5016716;28;20046;-26
2022/05/06 03:11:00;;;;;;;1128.32;125.05;;;7.00;99.90;;;;;;5017630;28;20057;-26
2022/05/06 03:13:26;;;;;;;1077.07;121.88;;;6.90;99.90;;;;;;5036936;28;20061;-26
2022/05/06 03:15:52;;;;;;;1219.40;149.85;;;7.10;99.90;;;;;;5020087;28;20056;-26
2022/05/06 03:18:18;;;;;;;1153.13;117.28;;;7.10;99.90;;;;;;5016199;28;20038;-28
2022/05/06 03:20:44;;;;;;;1262.03;141.35;;;7.20;99.90;;;;;;5017256;28;20050;-26
2022/05/06 03:23:12;;;;;;;1545.72;152.70;;;7.40;99.90;;;;;;5016995;28;20081;-24
2022/05/06 03:25:38;;;;;;;1108.15;125.15;;;7.30;99.90;;;;;;5017688;28;20449;-24
2022/05/06 03:28:07;;;;;;;1241.80;138.73;;;7.20;99.90;;;;;;5016935;28;20086;-24
2022/05/06 03:30:39;;;;;;;955.47;106.38;;;7.30;99.90;;;;;;5015671;28;20049;-24
2022/05/06 03:33:10;;;;;;;1419.00;158.30;;;7.30;99.90;;;;;;5016916;28;20061;-24
2022/05/06 03:35:37;;;;;;;1042.20;127.82;;;7.40;99.90;;;;;;5025468;28;20378;-24
2022/05/06 03:38:05;;;;;;;932.83;130.48;;;7.40;99.90;;;;;;5016735;28;20046;-24
2022/05/06 03:40:32;;;;;;;1109.43;135.63;;;7.50;99.90;;;;;;5016119;28;20045;-24
2022/05/06 03:42:58;;;;;;;1144.47;129.10;;;7.50;99.90;;;;;;5016684;28;20112;-23
2022/05/06 03:45:24;;;;;;;876.00;105.13;;;7.50;99.90;;;;;;5016037;28;20038;-24
2022/05/06 03:47:50;;;;;;;839.58;110.38;;;7.50;99.90;;;;;;5017753;28;20129;-24
2022/05/06 03:53:00;;;;;;;582.97;70.10;;;7.60;99.90;;;;;;5015669;28;20045;-24
2022/05/06 03:55:25;;;;;;;1043.03;104.28;;;7.60;99.90;;;;;;5015936;28;20042;-24
2022/05/06 03:57:51;;;;;;;864.83;104.13;;;7.60;99.90;;;;;;5015826;28;20046;-24
2022/05/06 04:00:19;;;;;;;1259.95;134.85;;;7.70;99.90;;;;;;5015969;28;20488;-25
2022/05/06 04:02:44;;;;;;;966.85;104.70;;;7.70;99.90;;;;;;5036931;28;20111;-24
2022/05/06 04:05:10;;;;;;;669.78;86.93;;;7.80;99.90;;;;;;5020046;28;20444;-24
2022/05/06 04:07:36;;;;;;;1088.75;114.68;;;7.90;99.90;;;;;;5019704;28;20050;-24
2022/05/06 04:10:02;;;;;;;858.38;100.18;;;7.90;99.90;;;;;;5015622;28;20073;-24
2022/05/06 04:12:28;;;;;;;1029.50;120.78;;;8.00;99.90;;;;;;5014403;28;20054;-24
2022/05/06 04:14:54;;;;;;;1042.50;120.38;;;8.00;99.90;;;;;;5014949;28;20050;-24
2022/05/06 04:17:22;;;;;;;868.92;102.20;;;8.00;99.90;;;;;;5014803;28;20443;-24
2022/05/06 04:25:19;;;;;;;798.08;98.28;;;8.20;99.90;;;;;;5015359;28;20053;-24
2022/05/06 04:27:45;;;;;;;886.15;101.55;;;8.20;99.90;;;;;;5015357;28;20054;-24
2022/05/06 04:30:11;;;;;;;1244.85;119.90;;;8.30;99.90;;;;;;5016260;28;20404;-24
2022/05/06 04:32:38;;;;;;;738.83;92.88;;;8.30;99.90;;;;;;5016074;28;20096;-24
2022/05/06 04:35:06;;;;;;;1007.47;106.22;;;8.40;99.90;;;;;;5018414;28;20045;-24
2022/05/06 04:37:32;;;;;;;1081.82;103.82;;;8.40;99.90;;;;;;5015036;28;20485;-24
2022/05/06 04:39:58;;;;;;;998.35;101.88;;;8.60;99.90;;;;;;5029365;28;20042;-24
2022/05/06 04:42:25;;;;;;;1086.47;114.28;;;8.50;99.90;;;;;;5015588;28;20137;-24
2022/05/06 04:44:51;;;;;;;1019.72;110.90;;;8.50;99.90;;;;;;5015224;28;20128;-24
2022/05/06 04:47:17;;;;;;;820.35;98.32;;;8.50;99.90;;;;;;5014368;28;20049;-24
2022/05/06 04:49:43;;;;;;;775.35;89.10;;;8.50;99.90;;;;;;5015793;28;20042;-25
2022/05/06 04:52:09;;;;;;;1079.38;115.82;;;8.70;99.90;;;;;;5014824;28;20108;-24
2022/05/06 04:54:35;;;;;;;1156.70;117.90;;;8.60;99.90;;;;;;5015280;28;20112;-24
2022/05/06 04:57:01;;;;;;;764.80;90.07;;;8.60;99.90;;;;;;5013701;28;20045;-24
2022/05/06 04:59:27;;;;;;;1160.05;127.13;;;8.50;99.90;;;;;;5014126;28;20551;-24
2022/05/06 05:01:52;;;;;;;1248.43;128.95;;;8.60;99.90;;;;;;5015591;28;20117;-25
2022/05/06 05:04:18;;;;;;;1049.75;112.30;;;8.60;99.90;;;;;;5015190;28;20104;-24
2022/05/06 05:06:45;;;;;;;1217.43;131.60;;;8.70;99.90;;;;;;5014558;28;20065;-24
2022/05/06 05:09:11;;;;;;;912.72;111.00;;;8.80;99.90;;;;;;5014148;28;20048;-24
2022/05/06 05:11:37;;;;;;;1101.57;123.35;;;8.80;99.90;;;;;;5014131;28;20077;-24
2022/05/06 05:14:03;;;;;;;1315.55;142.77;;;8.90;99.90;;;;;;5013021;28;20112;-24
2022/05/06 05:16:29;;;;;;;947.97;106.22;;;8.90;99.90;;;;;;5015395;28;20453;-25
2022/05/06 05:18:55;;;;;;;976.42;112.72;;;9.00;99.90;;;;;;5015227;28;20046;-25
2022/05/06 05:21:21;;;;;;;992.03;118.57;;;9.10;99.90;;;;;;5013995;28;20132;-25
2022/05/06 05:23:46;;;;;;;994.85;118.30;;;9.20;99.90;;;;;;5013096;28;20061;-25
2022/05/06 05:26:12;;;;;;;644.58;79.28;;;9.20;99.90;;;;;;5014607;28;20100;-25
2022/05/06 05:28:38;;;;;;;685.72;88.72;;;9.20;99.90;;;;;;5014725;28;20121;-25
2022/05/06 05:31:04;;;;;;;786.15;93.05;;;9.20;99.90;;;;;;5013513;28;20084;-25
2022/05/06 05:33:31;;;;;;;799.72;98.00;;;9.20;99.90;;;;;;5013713;28;20431;-25
2022/05/06 05:35:56;;;;;;;664.30;90.15;;;9.20;99.90;;;;;;5017594;28;20049;-25
2022/05/06 05:38:22;;;;;;;509.02;68.90;;;9.50;99.90;;;;;;4996602;28;20100;-25
2022/05/06 05:40:48;;;;;;;533.13;71.55;;;9.20;99.90;;;;;;5014388;28;20041;-25
2022/05/06 05:48:42;;;;;;;597.15;79.30;;;9.20;99.90;;;;;;5014386;28;20401;-25
2022/05/06 05:51:09;;;;;;;478.05;68.43;;;9.40;99.90;;;;;;5014863;28;20480;-25
2022/05/06 05:53:35;;;;;;;824.95;96.18;;;9.30;99.90;;;;;;5013721;28;20073;-25
2022/05/06 05:56:01;;;;;;;728.92;87.00;;;9.30;99.90;;;;;;5014278;28;20038;-25
2022/05/06 05:58:27;;;;;;;490.40;67.80;;;9.40;99.90;;;;;;5013014;28;20042;-26
2022/05/06 06:00:52;;;;;;;585.50;76.05;;;9.40;99.90;;;;;;5020985;28;20041;-25
2022/05/06 06:03:18;;;;;;;479.88;74.10;;;9.40;99.90;;;;;;5018603;28;20077;-25
2022/05/06 06:05:44;;;;;;;624.22;78.57;;;9.50;99.90;;;;;;5013590;28;20037;-25
2022/05/06 06:08:11;;;;;;;836.95;96.00;;;9.60;99.90;;;;;;5014070;28;20046;-25
2022/05/06 06:10:36;;;;;;;835.55;104.05;;;9.80;99.90;;;;;;5013972;28;20551;-25
2022/05/06 06:13:04;;;;;;;720.00;94.72;;;9.90;99.90;;;;;;5013503;28;20041;-25
2022/05/06 06:15:33;;;;;;;564.85;78.65;;;10.10;99.90;;;;;;5013410;28;20532;-25
2022/05/06 06:17:58;;;;;;;668.33;90.53;;;10.00;99.90;;;;;;5012940;28;20046;-25
2022/05/06 06:20:24;;;;;;;564.65;77.40;;;10.00;99.90;;;;;;5015278;28;20489;-25
2022/05/06 06:22:50;;;;;;;709.75;90.28;;;10.00;99.90;;;;;;5020323;28;20049;-25
2022/05/06 06:25:16;;;;;;;549.30;62.45;;;10.10;99.90;;;;;;5031460;28;20065;-25
2022/05/06 06:27:43;;;;;;;611.50;73.88;;;10.10;99.90;;;;;;5033565;28;20085;-25
2022/05/06 06:30:10;;;;;;;424.35;67.72;;;10.10;99.90;;;;;;5015339;28;20061;-25
2022/05/06 06:32:36;;;;;;;220.00;50.63;;;10.30;99.90;;;;;;5014180;28;20100;-25
2022/05/06 06:35:02;;;;;;;531.85;64.80;;;10.30;99.90;;;;;;5013669;28;20046;-25
2022/05/06 06:37:31;;;;;;;378.42;50.83;;;10.30;99.90;;;;;;5026748;28;20072;-25
2022/05/06 06:39:57;;;;;;;348.25;49.97;;;10.30;99.90;;;;;;5030802;28;20092;-25
2022/05/06 06:42:23;;;;;;;217.25;39.47;;;10.30;99.90;;;;;;5024353;28;20095;-26
2022/05/06 06:44:49;;;;;;;91.40;32.47;;;10.30;99.90;;;;;;5019525;28;20485;-24
2022/05/06 06:47:15;;;;;;;129.88;33.67;;;10.30;99.90;;;;;;5028365;28;20059;-24
2022/05/06 06:49:41;;;;;;;150.18;37.13;;;10.40;99.90;;;;;;5024756;28;20038;-25
2022/05/06 06:52:07;;;;;;;111.22;34.67;;;10.40;99.90;;;;;;5019216;28;20374;-25
2022/05/06 06:54:33;;;;;;;88.13;28.60;;;10.30;99.90;;;;;;5017981;28;20143;-25
2022/05/06 06:56:59;;;;;;;96.35;27.60;;;10.30;99.90;;;;;;5024247;28;20493;-26
2022/05/06 06:59:24;;;;;;;73.18;23.85;;;10.30;99.90;;;;;;5027076;28;20050;-25
2022/05/06 07:01:50;;;;;;;51.25;21.33;;;10.40;99.90;;;;;;5018005;28;20143;-25
2022/05/06 07:04:16;;;;;;;48.13;18.92;;;10.30;99.90;;;;;;5017863;28;20046;-25
2022/05/06 07:12:10;;;;;;;38.63;18.42;;;10.40;99.90;;;;;;5028883;28;20045;-25
2022/05/06 07:14:36;;;;;;;39.22;18.27;;;10.30;99.90;;;;;;5037262;28;20451;-25
2022/05/06 07:17:05;;;;;;;39.10;19.20;;;10.40;99.90;;;;;;5028516;28;20133;-25
2022/05/06 07:19:33;;;;;;;30.92;16.65;;;10.40;99.90;;;;;;5014667;28;20042;-25
2022/05/06 07:21:59;;;;;;;30.13;16.42;;;10.50;99.90;;;;;;5033534;28;20061;-26
2022/05/06 07:24:25;;;;;;;34.72;17.85;;;10.60;99.90;;;;;;5017257;28;20042;-26
2022/05/06 07:26:52;;;;;;;24.60;14.75;;;10.70;99.90;;;;;;5017026;28;20090;-26
2022/05/06 07:29:19;;;;;;;17.05;10.60;;;10.90;99.90;;;;;;5033349;28;20046;-26
2022/05/06 07:31:45;;;;;;;14.20;9.13;;;10.80;99.90;;;;;;5035847;28;20137;-26
2022/05/06 07:34:11;;;;;;;19.40;13.55;;;10.80;99.90;;;;;;5037217;28;20140;-26
2022/05/06 07:36:41;;;;;;;15.43;10.98;;;10.80;99.90;;;;;;5036570;28;20057;-26
2022/05/06 07:39:11;;;;;;;14.95;11.02;;;10.90;99.90;;;;;;5026488;28;20054;-26
2022/05/06 07:41:38;;;;;;;16.40;10.77;;;10.90;99.90;;;;;;5035588;28;20091;-26
2022/05/06 07:44:04;;;;;;;14.48;9.88;;;10.90;99.90;;;;;;5036463;28;20045;-26
2022/05/06 07:46:31;;;;;;;15.93;11.88;;;10.90;99.90;;;;;;5036986;28;20053;-26
2022/05/06 07:48:57;;;;;;;15.05;10.55;;;11.10;99.90;;;;;;5032328;28;20056;-26
2022/05/06 07:51:23;;;;;;;15.55;11.18;;;11.30;99.90;;;;;;5018906;28;20121;-27
2022/05/06 07:53:51;;;;;;;14.75;11.07;;;11.50;99.90;;;;;;5031713;28;20485;-27
2022/05/06 07:56:18;;;;;;;14.02;10.88;;;11.90;99.90;;;;;;5029163;28;20056;-26
2022/05/06 07:58:44;;;;;;;9.95;8.18;;;12.10;99.90;;;;;;5036681;28;20096;-26
2022/05/06 08:01:13;;;;;;;12.57;9.65;;;12.20;99.90;;;;;;5027937;28;20042;-26
2022/05/06 08:06:23;;;;;;;10.57;8.40;;;12.60;99.90;;;;;;5023085;28;20054;-27
2022/05/06 08:08:49;;;;;;;10.55;9.23;;;12.70;99.90;;;;;;5035770;28;20041;-27
2022/05/06 08:11:15;;;;;;;9.70;7.32;;;12.90;93.30;;;;;;5031023;28;20049;-27
2022/05/06 08:13:41;;;;;;;8.88;7.72;;;13.00;1.00;;;;;;5014540;28;20124;-27
2022/05/06 08:16:06;;;;;;;10.30;8.55;;;12.90;99.90;;;;;;5019005;28;20057;-27
2022/05/06 08:18:32;;;;;;;9.98;8.48;;;13.00;99.90;;;;;;5026235;28;20041;-28
2022/05/06 08:20:58;;;;;;;10.30;8.57;;;13.00;99.90;;;;;;5034621;28;20060;-27
2022/05/06 08:23:24;;;;;;;9.85;7.90;;;13.10;99.90;;;;;;5019563;28;20042;-27
2022/05/06 08:25:51;;;;;;;8.07;7.28;;;13.20;99.90;;;;;;5014755;28;20371;-27
2022/05/06 08:28:19;;;;;;;10.25;7.82;;;13.40;1.00;;;;;;5018296;28;20042;-27
2022/05/06 08:30:46;;;;;;;11.07;8.55;;;13.60;1.00;;;;;;5035632;28;20049;-27
2022/05/06 08:33:13;;;;;;;8.50;7.28;;;14.00;1.00;;;;;;5035416;28;20088;-27
2022/05/06 08:35:39;;;;;;;6.95;6.25;;;14.20;99.90;;;;;;5035561;28;20053;-27
2022/05/06 08:38:05;;;;;;;8.45;6.25;;;14.30;99.90;;;;;;5035438;28;20056;-27
2022/05/06 08:40:35;;;;;;;8.00;7.03;;;14.60;99.90;;;;;;5017471;28;20045;-27
2022/05/06 08:43:02;;;;;;;7.97;6.97;;;14.80;1.00;;;;;;5014957;28;20493;-26
2022/05/06 08:51:01;;;;;;;11.45;6.95;;;15.60;1.00;;;;;;5015506;28;20049;-27
2022/05/06 08:53:32;;;;;;;7.20;6.45;;;15.50;99.90;;;;;;5015300;28;20100;-26
2022/05/06 08:55:59;;;;;;;22.48;6.60;;;15.40;99.90;;;;;;5015379;28;20049;-26
2022/05/06 08:58:27;;;;;;;6.97;5.85;;;15.40;99.90;;;;;;5014124;28;20196;-26
2022/05/06 09:01:13;;;;;;;8.15;6.20;;;15.60;99.90;;;;;;5015467;28;20053;-27
2022/05/06 09:03:41;;;;;;;6.07;5.47;;;16.10;99.90;;;;;;5014833;28;20088;-26
2022/05/06 09:06:20;;;;;;;8.25;6.10;;;16.50;99.90;;;;;;5015179;28;20053;-26
2022/05/06 09:08:47;;;;;;;8.25;5.60;;;16.20;99.90;;;;;;5015736;28;20401;-26
2022/05/06 09:11:13;;;;;;;5.80;5.20;;;16.90;99.90;;;;;;5014294;28;20064;-27
2022/05/06 09:13:51;;;;;;;6.05;5.43;;;17.70;79.90;;;;;;5015037;28;20058;-26
2022/05/06 09:16:40;;;;;;;6.03;5.43;;;18.30;2.10;;;;;;5014734;28;20572;-26
2022/05/06 09:19:10;;;;;;;5.93;5.43;;;19.00;1.00;;;;;;5014896;28;20047;-26
2022/05/06 09:21:37;;;;;;;5.32;4.82;;;19.50;1.00;;;;;;5013964;28;20053;-27
2022/05/06 09:24:19;;;;;;;7.03;5.30;;;19.50;1.00;;;;;;5026620;28;20045;-26
2022/05/06 09:27:09;;;;;;;6.18;5.13;;;19.40;1.00;;;;;;5015753;28;20050;-27
2022/05/06 09:29:37;;;;;;;6.70;6.00;;;19.00;1.00;;;;;;5020113;28;20053;-26
2022/05/06 09:32:26;;;;;;;4.90;4.47;;;19.10;1.00;;;;;;5031397;28;20049;-28
2022/05/06 09:34:59;;;;;;;5.72;4.78;;;18.60;1.00;;;;;;5025696;28;20056;-26
2022/05/06 09:37:35;;;;;;;4.68;4.18;;;18.40;1.00;;;;;;5033335;28;20049;-27
2022/05/06 09:40:06;;;;;;;4.97;4.57;;;19.00;1.00;;;;;;5016610;28;20128;-26
2022/05/06 09:42:33;;;;;;;5.88;5.05;;;18.70;1.00;;;;;;5009762;28;20412;-26
2022/05/06 09:45:00;;;;;;;5.55;4.55;;;18.90;1.00;;;;;;5033983;28;20060;-26
2022/05/06 09:47:25;;;;;;;4.35;3.95;;;18.70;1.00;;;;;;5034090;28;20057;-27
2022/05/06 09:49:52;;;;;;;5.10;4.65;;;19.20;1.00;;;;;;5034351;28;20049;-27
2022/05/06 09:52:18;;;;;;;5.72;4.40;;;19.10;1.00;;;;;;5030456;28;20074;-26
2022/05/06 09:54:46;;;;;;;5.57;5.00;;;19.80;1.00;;;;;;5014241;28;20046;-26
2022/05/06 09:57:16;;;;;;;8.55;5.18;;;19.90;99.90;;;;;;4996962;28;20103;-26
2022/05/06 09:59:42;;;;;;;4.78;4.28;;;20.10;99.90;;;;;;5014221;28;20042;-27
2022/05/06 10:02:09;;;;;;;4.38;3.72;;;19.10;99.90;;;;;;5014222;28;20049;-27
2022/05/06 10:04:36;;;;;;;4.18;3.78;;;18.70;99.90;;;;;;5023077;28;20558;-27
2022/05/06 10:07:05;;;;;;;4.97;3.50;;;18.60;99.90;;;;;;5033910;28;20057;-27
2022/05/06 10:09:57;;;;;;;5.28;4.32;;;18.40;99.90;;;;;;5029864;28;20041;-27
2022/05/06 10:12:25;;;;;;;5.70;3.70;;;18.30;99.90;;;;;;5024718;28;20125;-27
2022/05/06 10:14:52;;;;;;;7.45;4.95;;;18.10;99.90;;;;;;5032555;28;20048;-27
2022/05/06 10:17:50;;;;;;;4.53;4.05;;;18.60;99.90;;;;;;5017506;28;20081;-27
2022/05/06 10:20:38;;;;;;;4.00;3.60;;;19.10;99.90;;;;;;5029620;28;20042;-27
2022/05/06 10:23:15;;;;;;;4.68;3.70;;;19.70;99.90;;;;;;5015907;28;20076;-27
2022/05/06 10:25:41;;;;;;;4.22;3.83;;;19.90;99.90;;;;;;5033680;28;20041;-27
2022/05/06 10:34:16;;;;;;;2.70;2.33;;;19.30;99.90;;;;;;5031371;28;20057;-27
2022/05/06 10:36:45;;;;;;;4.05;2.92;;;19.20;99.90;;;;;;5019920;28;20063;-27
2022/05/06 10:39:37;;;;;;;4.75;2.70;;;18.90;99.90;;;;;;5013165;28;20038;-27
2022/05/06 10:42:15;;;;;;;3.97;2.92;;;18.80;99.90;;;;;;5014297;28;20421;-28
2022/05/06 10:44:44;;;;;;;7.25;3.30;;;19.10;99.90;;;;;;5013774;28;20057;-27
2022/05/06 10:47:13;;;;;;;3.78;2.70;;;18.90;99.90;;;;;;5013707;28;20046;-28
2022/05/06 10:49:39;;;;;;;2.72;2.40;;;18.80;99.90;;;;;;5013617;28;20045;-27
2022/05/06 10:52:18;;;;;;;3.00;2.40;;;19.00;99.90;;;;;;5013744;28;20133;-27
2022/05/06 10:54:47;;;;;;;3.38;2.30;;;18.80;99.90;;;;;;5013610;28;20045;-28
2022/05/06 10:57:17;;;;;;;4.07;2.83;;;19.00;99.90;;;;;;5013284;28;20409;-28
2022/05/06 10:59:52;;;;;;;3.20;2.90;;;19.50;99.90;;;;;;5016937;28;20041;-28
2022/05/06 11:02:21;;;;;;;4.00;3.22;;;19.20;99.90;;;;;;5017993;28;20489;-27
2022/05/06 11:04:53;;;;;;;6.63;3.22;;;19.60;99.90;;;;;;5024228;28;20081;-28
2022/05/06 11:07:19;;;;;;;3.10;2.80;;;20.70;99.90;;;;;;5022247;28;20042;-30
2022/05/06 11:09:45;;;;;;;2.78;2.03;;;21.00;99.90;;;;;;5018301;28;20555;-28
2022/05/06 11:12:27;;;;;;;2.63;2.13;;;21.20;99.90;;;;;;5018976;28;20077;-28
2022/05/06 11:14:57;;;;;;;5.70;2.97;;;21.40;96.70;;;;;;5012366;28;20061;-27
2022/05/06 11:17:24;;;;;;;2.50;2.30;;;21.20;99.90;;;;;;5012551;28;20077;-27
2022/05/06 11:19:50;;;;;;;5.25;3.13;;;21.20;99.90;;;;;;5013930;28;20046;-28
2022/05/06 11:22:16;;;;;;;4.05;2.40;;;20.60;99.90;;;;;;5013383;28;20042;-27
2022/05/06 11:24:43;;;;;;;2.65;1.98;;;20.60;99.90;;;;;;5023515;28;20038;-27
2022/05/06 11:27:19;;;;;;;8.57;2.28;;;20.40;99.90;;;;;;5017165;28;20481;-28
2022/05/06 11:29:55;;;;;;;2.67;2.13;;;20.30;99.90;;;;;;5017018;28;20046;-27
2022/05/06 11:32:26;;;;;;;5.38;2.00;;;20.50;99.90;;;;;;5017349;28;20084;-27
2022/05/06 11:34:57;;;;;;;3.53;2.10;;;20.40;99.90;;;;;;5021363;28;20049;-28
2022/05/06 11:37:34;;;;;;;2.75;2.42;;;20.40;99.90;;;;;;5028643;28;20528;-27
2022/05/06 11:40:19;;;;;;;7.85;2.33;;;20.10;99.90;;;;;;5021427;28;20034;-28
2022/05/06 11:42:45;;;;;;;4.13;2.45;;;19.90;99.90;;;;;;5020947;28;20046;-27
2022/05/06 11:48:08;;;;;;;5.28;2.85;;;20.10;99.90;;;;;;5016650;28;20100;-28
2022/05/06 11:50:35;;;;;;;3.72;2.70;;;20.30;99.90;;;;;;5029474;28;20045;-27
2022/05/06 11:53:02;;;;;;;3.17;2.88;;;20.30;99.90;;;;;;5033716;28;20056;-28
2022/05/06 11:55:32;;;;;;;2.88;2.25;;;20.40;99.90;;;;;;5028920;28;20489;-28
2022/05/06 11:57:58;;;;;;;4.53;3.28;;;21.00;99.90;;;;;;5022161;28;20049;-28
2022/05/06 12:00:25;;;;;;;3.00;2.80;;;21.00;99.90;;;;;;5026234;28;20057;-28
2022/05/06 12:02:52;;;;;;;6.18;3.22;;;21.00;99.90;;;;;;5035842;28;20516;-28
2022/05/06 12:05:18;;;;;;;3.63;3.33;;;20.40;99.90;;;;;;5016680;28;20041;-28
2022/05/06 12:07:46;;;;;;;6.03;3.95;;;19.80;99.90;;;;;;5026349;28;20041;-28
2022/05/06 12:10:23;;;;;;;8.68;4.05;;;19.50;99.90;;;;;;5028007;28;20042;-27
2022/05/06 12:13:08;;;;;;;5.25;3.25;;;19.40;99.90;;;;;;5030220;28;20407;-28
2022/05/06 12:15:41;;;;;;;6.43;3.88;;;19.30;99.90;;;;;;5005105;28;20046;-27
2022/05/06 12:18:17;;;;;;;4.63;3.70;;;19.80;99.90;;;;;;5031853;28;20045;-28
2022/05/06 12:20:43;;;;;;;3.67;3.38;;;20.30;99.90;;;;;;5031940;28;20052;-27
2022/05/06 12:23:11;;;;;;;4.60;3.67;;;20.70;99.90;;;;;;5034819;28;20045;-28
2022/05/06 12:25:41;;;;;;;5.07;3.70;;;20.80;99.90;;;;;;5026904;28;20053;-28
2022/05/06 12:28:18;;;;;;;5.85;4.07;;;21.00;99.90;;;;;;5020373;28;20481;-28
2022/05/06 12:30:45;;;;;;;4.72;3.75;;;21.30;99.90;;;;;;5021083;28;20116;-28
2022/05/06 12:33:15;;;;;;;5.55;4.55;;;21.00;99.90;;;;;;5021459;28;20049;-29
2022/05/06 12:36:04;;;;;;;5.28;4.28;;;20.70;99.90;;;;;;5016602;28;20490;-28
2022/05/06 12:38:39;;;;;;;5.60;3.53;;;20.30;99.90;;;;;;5030203;28;20053;-27
2022/05/06 12:41:42;;;;;;;7.97;3.80;;;20.10;99.90;;;;;;5034604;28;20444;-28
2022/05/06 12:44:21;;;;;;;5.45;3.42;;;20.70;99.90;;;;;;5031137;28;20051;-28
2022/05/06 12:46:47;;;;;;;4.32;3.70;;;21.00;99.90;;;;;;5024633;28;20049;-28
2022/05/06 12:51:58;;;;;;;5.90;3.40;;;20.70;99.90;;;;;;5015869;28;20414;-28
2022/05/06 12:54:26;;;;;;;7.05;4.75;;;20.70;99.90;;;;;;5027464;28;20041;-28
2022/05/06 12:56:53;;;;;;;5.63;4.22;;;20.80;99.90;;;;;;5004414;28;20497;-28
2022/05/06 12:59:19;;;;;;;6.97;5.07;;;20.90;99.90;;;;;;5033220;28;20488;-28
2022/05/06 13:01:44;;;;;;;5.60;4.90;;;20.60;99.90;;;;;;5016566;28;20050;-28
2022/05/06 13:04:10;;;;;;;6.30;4.57;;;20.30;99.90;;;;;;5014856;28;20058;-27
2022/05/06 13:06:36;;;;;;;4.78;4.03;;;20.40;99.90;;;;;;5021213;28;20049;-28
2022/05/06 13:09:02;;;;;;;5.70;3.67;;;20.50;99.90;;;;;;5015463;28;20129;-28
2022/05/06 13:11:31;;;;;;;6.80;4.25;;;20.60;99.90;;;;;;5014266;28;20049;-28
2022/05/06 13:13:59;;;;;;;3.83;3.47;;;20.80;99.90;;;;;;5031606;28;20085;-28
2022/05/06 13:16:24;;;;;;;4.03;3.10;;;21.20;99.90;;;;;;5033349;28;20381;-29
2022/05/06 13:18:52;;;;;;;5.63;3.50;;;21.40;99.90;;;;;;5033727;28;20037;-28
2022/05/06 13:21:19;;;;;;;6.13;3.17;;;21.40;98.10;;;;;;5024936;28;20463;-27
2022/05/06 13:23:45;;;;;;;4.55;3.42;;;21.70;99.90;;;;;;5024975;28;20548;-27